sensor_id;sensor_type;location;lat;lon;timestamp;temperature;humidity
34061;DHT22;20336;-33.424;-70.638;2023-07-29T00:01:54;16.50;99.90
34061;DHT22;20336;-33.424;-70.638;2023-07-29T00:04:21;16.50;99.90
34061;DHT22;20336;-33.424;-70.638;2023-07-29T00:06:48;16.60;99.90
34061;DHT22;20336;-33.424;-70.638;2023-07-29T00:09:15;16.60;99.90
34061;DHT22;20336;-33.424;-70.638;2023-07-29T00:11:41;16.50;99.90
34061;DHT22;20336;-33.424;-70.638;2023-07-29T00:14:08;16.60;99.90
34061;DHT22;20336;-33.424;-70.638;2023-07-29T00:16:35;16.60;99.90
34061;DHT22;20336;-33.424;-70.638;2023-07-29T00:19:03;16.70;99.90
34061;DHT22;20336;-33.424;-70.638;2023-07-29T00:21:30;16.80;99.90
34061;DHT22;20336;-33.424;-70.638;2023-07-29T00:23:57;16.80;99.90
34061;DHT22;20336;-33.424;-70.638;2023-07-29T00:26:25;17.00;99.90
34061;DHT22;20336;-33.424;-70.638;2023-07-29T00:28:56;16.90;99.90
34061;DHT22;20336;-33.424;-70.638;2023-07-29T00:31:22;16.80;99.90
34061;DHT22;20336;-33.424;-70.638;2023-07-29T00:33:49;16.80;99.90
34061;DHT22;20336;-33.424;-70.638;2023-07-29T00:36:16;16.80;99.90
34061;DHT22;20336;-33.424;-70.638;2023-07-29T00:38:43;16.90;99.90
34061;DHT22;20336;-33.424;-70.638;2023-07-29T00:41:10;16.90;99.90
34061;DHT22;20336;-33.424;-70.638;2023-07-29T00:43:39;17.10;99.90
34061;DHT22;20336;-33.424;-70.638;2023-07-29T00:46:08;17.10;99.90
34061;DHT22;20336;-33.424;-70.638;2023-07-29T00:48:35;16.90;99.90
34061;DHT22;20336;-33.424;-70.638;2023-07-29T00:51:02;16.90;99.90
34061;DHT22;20336;-33.424;-70.638;2023-07-29T00:53:29;17.00;99.90
34061;DHT22;20336;-33.424;-70.638;2023-07-29T00:55:56;17.10;99.90
34061;DHT22;20336;-33.424;-70.638;2023-07-29T00:58:23;17.20;99.90
34061;DHT22;20336;-33.424;-70.638;2023-07-29T01:00:50;17.10;99.90
34061;DHT22;20336;-33.424;-70.638;2023-07-29T01:03:17;17.10;99.90
34061;DHT22;20336;-33.424;-70.638;2023-07-29T01:05:58;17.40;99.90
34061;DHT22;20336;-33.424;-70.638;2023-07-29T01:08:52;17.70;99.90
34061;DHT22;20336;-33.424;-70.638;2023-07-29T01:14:26;17.20;99.90
34061;DHT22;20336;-33.424;-70.638;2023-07-29T01:17:03;16.90;99.90
34061;DHT22;20336;-33.424;-70.638;2023-07-29T01:22:27;16.90;99.90
34061;DHT22;20336;-33.424;-70.638;2023-07-29T01:24:54;16.80;99.90
34061;DHT22;20336;-33.424;-70.638;2023-07-29T01:27:21;16.80;99.90
34061;DHT22;20336;-33.424;-70.638;2023-07-29T01:29:48;16.50;99.90
34061;DHT22;20336;-33.424;-70.638;2023-07-29T01:32:34;16.50;99.90
34061;DHT22;20336;-33.424;-70.638;2023-07-29T01:37:35;16.30;99.90
34061;DHT22;20336;-33.424;-70.638;2023-07-29T01:40:04;16.20;99.90
34061;DHT22;20336;-33.424;-70.638;2023-07-29T01:42:32;16.20;99.90
34061;DHT22;20336;-33.424;-70.638;2023-07-29T01:44:59;16.30;99.90
34061;DHT22;20336;-33.424;-70.638;2023-07-29T01:47:26;16.20;99.90
34061;DHT22;20336;-33.424;-70.638;2023-07-29T01:49:52;16.20;99.90
34061;DHT22;20336;-33.424;-70.638;2023-07-29T01:52:19;16.10;99.90
34061;DHT22;20336;-33.424;-70.638;2023-07-29T01:54:46;16.30;99.90
34061;DHT22;20336;-33.424;-70.638;2023-07-29T01:57:16;16.30;99.90
34061;DHT22;20336;-33.424;-70.638;2023-07-29T01:59:43;16.20;99.90
34061;DHT22;20336;-33.424;-70.638;2023-07-29T02:02:09;16.40;99.90
34061;DHT22;20336;-33.424;-70.638;2023-07-29T02:04:37;16.30;99.90
34061;DHT22;20336;-33.424;-70.638;2023-07-29T02:07:04;16.30;99.90
34061;DHT22;20336;-33.424;-70.638;2023-07-29T02:09:31;16.30;99.90
34061;DHT22;20336;-33.424;-70.638;2023-07-29T02:11:58;16.30;99.90
34061;DHT22;20336;-33.424;-70.638;2023-07-29T02:14:25;16.30;99.90
34061;DHT22;20336;-33.424;-70.638;2023-07-29T02:16:52;16.50;99.90
34061;DHT22;20336;-33.424;-70.638;2023-07-29T02:19:19;16.40;99.90
34061;DHT22;20336;-33.424;-70.638;2023-07-29T02:21:46;16.40;99.90
34061;DHT22;20336;-33.424;-70.638;2023-07-29T02:24:12;16.30;99.90
34061;DHT22;20336;-33.424;-70.638;2023-07-29T02:26:39;16.50;99.90
34061;DHT22;20336;-33.424;-70.638;2023-07-29T02:29:06;16.70;99.90
34061;DHT22;20336;-33.424;-70.638;2023-07-29T02:31:33;16.70;99.90
34061;DHT22;20336;-33.424;-70.638;2023-07-29T02:34:01;16.70;99.90
34061;DHT22;20336;-33.424;-70.638;2023-07-29T02:36:29;16.70;99.90
34061;DHT22;20336;-33.424;-70.638;2023-07-29T02:38:56;16.60;99.90
34061;DHT22;20336;-33.424;-70.638;2023-07-29T02:41:23;16.60;99.90
34061;DHT22;20336;-33.424;-70.638;2023-07-29T02:43:50;16.60;99.90
34061;DHT22;20336;-33.424;-70.638;2023-07-29T02:46:17;16.80;99.90
34061;DHT22;20336;-33.424;-70.638;2023-07-29T02:48:45;16.80;99.90
34061;DHT22;20336;-33.424;-70.638;2023-07-29T02:51:12;16.90;99.90
34061;DHT22;20336;-33.424;-70.638;2023-07-29T02:53:38;16.80;99.90
34061;DHT22;20336;-33.424;-70.638;2023-07-29T02:56:05;17.00;99.90
34061;DHT22;20336;-33.424;-70.638;2023-07-29T02:58:36;17.20;99.90
34061;DHT22;20336;-33.424;-70.638;2023-07-29T03:01:04;16.90;99.90
34061;DHT22;20336;-33.424;-70.638;2023-07-29T03:03:32;16.70;99.90
34061;DHT22;20336;-33.424;-70.638;2023-07-29T03:06:03;16.50;99.90
34061;DHT22;20336;-33.424;-70.638;2023-07-29T03:08:30;16.40;99.90
34061;DHT22;20336;-33.424;-70.638;2023-07-29T03:10:58;16.50;99.90
34061;DHT22;20336;-33.424;-70.638;2023-07-29T03:13:25;16.50;99.90
34061;DHT22;20336;-33.424;-70.638;2023-07-29T03:15:52;16.30;99.90
34061;DHT22;20336;-33.424;-70.638;2023-07-29T03:18:19;16.10;99.90
34061;DHT22;20336;-33.424;-70.638;2023-07-29T03:20:45;16.00;99.90
34061;DHT22;20336;-33.424;-70.638;2023-07-29T03:23:12;16.00;99.90
34061;DHT22;20336;-33.424;-70.638;2023-07-29T03:25:39;16.30;99.90
34061;DHT22;20336;-33.424;-70.638;2023-07-29T03:28:06;16.90;99.90
34061;DHT22;20336;-33.424;-70.638;2023-07-29T03:30:33;17.30;99.90
34061;DHT22;20336;-33.424;-70.638;2023-07-29T03:32:59;17.20;99.90
34061;DHT22;20336;-33.424;-70.638;2023-07-29T03:35:26;17.00;99.90
34061;DHT22;20336;-33.424;-70.638;2023-07-29T03:37:53;17.10;99.90
34061;DHT22;20336;-33.424;-70.638;2023-07-29T03:40:20;17.10;99.90
34061;DHT22;20336;-33.424;-70.638;2023-07-29T03:42:47;17.20;99.90
34061;DHT22;20336;-33.424;-70.638;2023-07-29T03:45:13;17.10;99.90
34061;DHT22;20336;-33.424;-70.638;2023-07-29T03:47:40;17.20;99.90
34061;DHT22;20336;-33.424;-70.638;2023-07-29T03:50:07;17.00;99.90
34061;DHT22;20336;-33.424;-70.638;2023-07-29T03:52:34;17.10;99.90
34061;DHT22;20336;-33.424;-70.638;2023-07-29T03:55:01;17.00;99.90
34061;DHT22;20336;-33.424;-70.638;2023-07-29T03:57:28;16.80;99.90
34061;DHT22;20336;-33.424;-70.638;2023-07-29T03:59:56;16.50;99.90
34061;DHT22;20336;-33.424;-70.638;2023-07-29T04:02:22;16.40;99.90
34061;DHT22;20336;-33.424;-70.638;2023-07-29T04:04:49;16.30;99.90
34061;DHT22;20336;-33.424;-70.638;2023-07-29T04:07:16;16.20;99.90
34061;DHT22;20336;-33.424;-70.638;2023-07-29T04:09:43;16.20;99.90
34061;DHT22;20336;-33.424;-70.638;2023-07-29T04:12:10;16.10;99.90
34061;DHT22;20336;-33.424;-70.638;2023-07-29T04:14:37;16.00;99.90
34061;DHT22;20336;-33.424;-70.638;2023-07-29T04:17:04;16.00;99.90
34061;DHT22;20336;-33.424;-70.638;2023-07-29T04:19:31;15.90;99.90
34061;DHT22;20336;-33.424;-70.638;2023-07-29T04:21:58;15.90;99.90
34061;DHT22;20336;-33.424;-70.638;2023-07-29T04:24:24;15.80;99.90
34061;DHT22;20336;-33.424;-70.638;2023-07-29T04:26:51;16.10;99.90
34061;DHT22;20336;-33.424;-70.638;2023-07-29T04:29:18;16.40;99.90
34061;DHT22;20336;-33.424;-70.638;2023-07-29T04:31:45;16.40;99.90
34061;DHT22;20336;-33.424;-70.638;2023-07-29T04:34:12;16.30;99.90
34061;DHT22;20336;-33.424;-70.638;2023-07-29T04:36:38;16.10;99.90
34061;DHT22;20336;-33.424;-70.638;2023-07-29T04:39:05;16.00;99.90
34061;DHT22;20336;-33.424;-70.638;2023-07-29T04:41:32;15.80;99.90
34061;DHT22;20336;-33.424;-70.638;2023-07-29T04:43:59;15.70;99.90
34061;DHT22;20336;-33.424;-70.638;2023-07-29T04:46:29;15.50;99.90
34061;DHT22;20336;-33.424;-70.638;2023-07-29T04:48:56;15.40;99.90
34061;DHT22;20336;-33.424;-70.638;2023-07-29T04:51:23;15.40;99.90
34061;DHT22;20336;-33.424;-70.638;2023-07-29T04:53:50;15.30;99.90
34061;DHT22;20336;-33.424;-70.638;2023-07-29T04:56:17;15.20;99.90
34061;DHT22;20336;-33.424;-70.638;2023-07-29T04:58:44;15.10;99.90
34061;DHT22;20336;-33.424;-70.638;2023-07-29T05:01:11;15.20;99.90
34061;DHT22;20336;-33.424;-70.638;2023-07-29T05:03:38;15.30;99.90
34061;DHT22;20336;-33.424;-70.638;2023-07-29T05:06:06;15.50;99.90
34061;DHT22;20336;-33.424;-70.638;2023-07-29T05:08:32;15.40;99.90
34061;DHT22;20336;-33.424;-70.638;2023-07-29T05:10:59;15.20;99.90
34061;DHT22;20336;-33.424;-70.638;2023-07-29T05:13:26;15.00;99.90
34061;DHT22;20336;-33.424;-70.638;2023-07-29T05:15:53;14.90;99.90
34061;DHT22;20336;-33.424;-70.638;2023-07-29T05:18:20;14.80;99.90
34061;DHT22;20336;-33.424;-70.638;2023-07-29T05:20:47;14.80;99.90
34061;DHT22;20336;-33.424;-70.638;2023-07-29T05:23:14;14.90;99.90
34061;DHT22;20336;-33.424;-70.638;2023-07-29T05:25:41;14.80;99.90
34061;DHT22;20336;-33.424;-70.638;2023-07-29T05:28:08;14.60;99.90
34061;DHT22;20336;-33.424;-70.638;2023-07-29T05:30:35;14.60;99.90
34061;DHT22;20336;-33.424;-70.638;2023-07-29T05:33:04;14.60;99.90
34061;DHT22;20336;-33.424;-70.638;2023-07-29T05:35:30;14.60;99.90
34061;DHT22;20336;-33.424;-70.638;2023-07-29T05:37:57;14.60;99.90
34061;DHT22;20336;-33.424;-70.638;2023-07-29T05:40:24;14.60;99.90
34061;DHT22;20336;-33.424;-70.638;2023-07-29T05:42:51;14.40;99.90
34061;DHT22;20336;-33.424;-70.638;2023-07-29T05:45:18;14.20;99.90
34061;DHT22;20336;-33.424;-70.638;2023-07-29T05:47:45;14.20;99.90
34061;DHT22;20336;-33.424;-70.638;2023-07-29T05:50:12;14.20;99.90
34061;DHT22;20336;-33.424;-70.638;2023-07-29T05:52:39;14.10;99.90
34061;DHT22;20336;-33.424;-70.638;2023-07-29T05:55:06;14.10;99.90
34061;DHT22;20336;-33.424;-70.638;2023-07-29T05:57:33;14.20;99.90
34061;DHT22;20336;-33.424;-70.638;2023-07-29T06:00:00;14.20;99.90
34061;DHT22;20336;-33.424;-70.638;2023-07-29T06:02:27;14.10;99.90
34061;DHT22;20336;-33.424;-70.638;2023-07-29T06:04:53;14.20;99.90
34061;DHT22;20336;-33.424;-70.638;2023-07-29T06:07:20;14.20;99.90
34061;DHT22;20336;-33.424;-70.638;2023-07-29T06:09:47;14.20;99.90
34061;DHT22;20336;-33.424;-70.638;2023-07-29T06:12:14;14.20;99.90
34061;DHT22;20336;-33.424;-70.638;2023-07-29T06:14:41;14.10;99.90
34061;DHT22;20336;-33.424;-70.638;2023-07-29T06:17:08;14.20;99.90
34061;DHT22;20336;-33.424;-70.638;2023-07-29T06:19:37;14.20;99.90
34061;DHT22;20336;-33.424;-70.638;2023-07-29T06:22:04;14.30;99.90
34061;DHT22;20336;-33.424;-70.638;2023-07-29T06:24:32;14.30;99.90
34061;DHT22;20336;-33.424;-70.638;2023-07-29T06:26:59;14.40;99.90
34061;DHT22;20336;-33.424;-70.638;2023-07-29T06:29:26;14.30;99.90
34061;DHT22;20336;-33.424;-70.638;2023-07-29T06:31:53;14.30;99.90
34061;DHT22;20336;-33.424;-70.638;2023-07-29T06:34:20;14.30;99.90
34061;DHT22;20336;-33.424;-70.638;2023-07-29T06:36:47;14.30;99.90
34061;DHT22;20336;-33.424;-70.638;2023-07-29T06:39:14;14.40;99.90
34061;DHT22;20336;-33.424;-70.638;2023-07-29T06:41:41;14.50;99.90
34061;DHT22;20336;-33.424;-70.638;2023-07-29T06:44:08;14.50;99.90
34061;DHT22;20336;-33.424;-70.638;2023-07-29T06:46:35;14.40;99.90
34061;DHT22;20336;-33.424;-70.638;2023-07-29T06:49:01;14.30;99.90
34061;DHT22;20336;-33.424;-70.638;2023-07-29T06:51:29;14.20;99.90
34061;DHT22;20336;-33.424;-70.638;2023-07-29T06:54:02;14.20;99.90
34061;DHT22;20336;-33.424;-70.638;2023-07-29T06:56:29;14.10;99.90
34061;DHT22;20336;-33.424;-70.638;2023-07-29T06:58:56;14.00;99.90
34061;DHT22;20336;-33.424;-70.638;2023-07-29T07:01:23;14.00;99.90
34061;DHT22;20336;-33.424;-70.638;2023-07-29T07:03:50;14.00;99.90
34061;DHT22;20336;-33.424;-70.638;2023-07-29T07:06:22;13.90;99.90
34061;DHT22;20336;-33.424;-70.638;2023-07-29T07:08:51;13.90;99.90
34061;DHT22;20336;-33.424;-70.638;2023-07-29T07:11:21;13.80;99.90
34061;DHT22;20336;-33.424;-70.638;2023-07-29T07:13:47;13.60;99.90
34061;DHT22;20336;-33.424;-70.638;2023-07-29T07:16:14;13.60;99.90
34061;DHT22;20336;-33.424;-70.638;2023-07-29T07:18:41;13.60;99.90
34061;DHT22;20336;-33.424;-70.638;2023-07-29T07:21:08;13.50;99.90
34061;DHT22;20336;-33.424;-70.638;2023-07-29T07:23:35;13.40;99.90
34061;DHT22;20336;-33.424;-70.638;2023-07-29T07:26:02;13.30;99.90
34061;DHT22;20336;-33.424;-70.638;2023-07-29T07:28:29;13.20;99.90
34061;DHT22;20336;-33.424;-70.638;2023-07-29T07:30:56;13.20;99.90
34061;DHT22;20336;-33.424;-70.638;2023-07-29T07:33:23;13.10;99.90
34061;DHT22;20336;-33.424;-70.638;2023-07-29T07:35:50;13.20;99.90
34061;DHT22;20336;-33.424;-70.638;2023-07-29T07:38:16;13.20;99.90
34061;DHT22;20336;-33.424;-70.638;2023-07-29T07:40:53;13.20;99.90
34061;DHT22;20336;-33.424;-70.638;2023-07-29T07:43:21;13.20;99.90
34061;DHT22;20336;-33.424;-70.638;2023-07-29T07:45:48;13.20;99.90
34061;DHT22;20336;-33.424;-70.638;2023-07-29T07:48:15;13.10;99.90
34061;DHT22;20336;-33.424;-70.638;2023-07-29T07:50:43;13.00;99.90
34061;DHT22;20336;-33.424;-70.638;2023-07-29T07:53:10;13.00;99.90
34061;DHT22;20336;-33.424;-70.638;2023-07-29T07:55:37;13.00;99.90
34061;DHT22;20336;-33.424;-70.638;2023-07-29T07:58:03;13.00;99.90
34061;DHT22;20336;-33.424;-70.638;2023-07-29T08:00:30;13.00;99.90
34061;DHT22;20336;-33.424;-70.638;2023-07-29T08:02:57;13.00;99.90
34061;DHT22;20336;-33.424;-70.638;2023-07-29T08:05:24;13.00;99.90
34061;DHT22;20336;-33.424;-70.638;2023-07-29T08:07:51;13.00;99.90
34061;DHT22;20336;-33.424;-70.638;2023-07-29T08:10:18;13.00;99.90
34061;DHT22;20336;-33.424;-70.638;2023-07-29T08:12:44;12.90;99.90
34061;DHT22;20336;-33.424;-70.638;2023-07-29T08:15:11;12.90;99.90
34061;DHT22;20336;-33.424;-70.638;2023-07-29T08:17:38;12.90;99.90
34061;DHT22;20336;-33.424;-70.638;2023-07-29T08:20:05;12.80;99.90
34061;DHT22;20336;-33.424;-70.638;2023-07-29T08:22:33;12.70;99.90
34061;DHT22;20336;-33.424;-70.638;2023-07-29T08:24:59;12.70;99.90
34061;DHT22;20336;-33.424;-70.638;2023-07-29T08:27:26;12.70;99.90
34061;DHT22;20336;-33.424;-70.638;2023-07-29T08:29:54;12.70;99.90
34061;DHT22;20336;-33.424;-70.638;2023-07-29T08:32:21;12.70;99.90
34061;DHT22;20336;-33.424;-70.638;2023-07-29T08:34:51;12.70;99.90
34061;DHT22;20336;-33.424;-70.638;2023-07-29T08:37:18;12.70;99.90
34061;DHT22;20336;-33.424;-70.638;2023-07-29T08:39:46;12.60;99.90
34061;DHT22;20336;-33.424;-70.638;2023-07-29T08:42:13;12.70;99.90
34061;DHT22;20336;-33.424;-70.638;2023-07-29T08:44:44;12.70;99.90
34061;DHT22;20336;-33.424;-70.638;2023-07-29T08:47:11;12.70;99.90
34061;DHT22;20336;-33.424;-70.638;2023-07-29T08:49:43;12.70;99.90
34061;DHT22;20336;-33.424;-70.638;2023-07-29T08:52:11;12.70;99.90
34061;DHT22;20336;-33.424;-70.638;2023-07-29T08:54:38;12.70;99.90
34061;DHT22;20336;-33.424;-70.638;2023-07-29T08:57:06;12.60;99.90
34061;DHT22;20336;-33.424;-70.638;2023-07-29T08:59:33;12.60;99.90
34061;DHT22;20336;-33.424;-70.638;2023-07-29T09:02:00;12.50;99.90
34061;DHT22;20336;-33.424;-70.638;2023-07-29T09:04:27;12.50;99.90
34061;DHT22;20336;-33.424;-70.638;2023-07-29T09:06:56;12.40;99.90
34061;DHT22;20336;-33.424;-70.638;2023-07-29T09:09:25;12.40;99.90
34061;DHT22;20336;-33.424;-70.638;2023-07-29T09:11:52;12.30;99.90
34061;DHT22;20336;-33.424;-70.638;2023-07-29T09:14:19;12.30;99.90
34061;DHT22;20336;-33.424;-70.638;2023-07-29T09:16:46;12.30;99.90
34061;DHT22;20336;-33.424;-70.638;2023-07-29T09:19:13;12.30;99.90
34061;DHT22;20336;-33.424;-70.638;2023-07-29T09:21:40;12.30;99.90
34061;DHT22;20336;-33.424;-70.638;2023-07-29T09:24:08;12.20;99.90
34061;DHT22;20336;-33.424;-70.638;2023-07-29T09:26:35;12.20;99.90
34061;DHT22;20336;-33.424;-70.638;2023-07-29T09:29:02;12.20;99.90
34061;DHT22;20336;-33.424;-70.638;2023-07-29T09:31:29;12.10;99.90
34061;DHT22;20336;-33.424;-70.638;2023-07-29T09:33:58;12.10;99.90
34061;DHT22;20336;-33.424;-70.638;2023-07-29T09:36:25;12.10;99.90
34061;DHT22;20336;-33.424;-70.638;2023-07-29T09:38:53;12.00;99.90
34061;DHT22;20336;-33.424;-70.638;2023-07-29T09:41:23;12.10;99.90
34061;DHT22;20336;-33.424;-70.638;2023-07-29T09:43:59;12.00;99.90
34061;DHT22;20336;-33.424;-70.638;2023-07-29T09:46:35;12.00;99.90
34061;DHT22;20336;-33.424;-70.638;2023-07-29T09:49:03;11.80;99.90
34061;DHT22;20336;-33.424;-70.638;2023-07-29T09:51:30;11.80;99.90
34061;DHT22;20336;-33.424;-70.638;2023-07-29T09:53:57;11.80;99.90
34061;DHT22;20336;-33.424;-70.638;2023-07-29T09:56:28;11.80;99.90
34061;DHT22;20336;-33.424;-70.638;2023-07-29T09:58:58;11.70;99.90
34061;DHT22;20336;-33.424;-70.638;2023-07-29T10:01:25;11.80;99.90
34061;DHT22;20336;-33.424;-70.638;2023-07-29T10:03:53;11.80;99.90
34061;DHT22;20336;-33.424;-70.638;2023-07-29T10:06:22;11.80;99.90
34061;DHT22;20336;-33.424;-70.638;2023-07-29T10:08:49;11.70;99.90
34061;DHT22;20336;-33.424;-70.638;2023-07-29T10:11:17;11.70;99.90
34061;DHT22;20336;-33.424;-70.638;2023-07-29T10:13:46;11.70;99.90
34061;DHT22;20336;-33.424;-70.638;2023-07-29T10:16:14;11.60;99.90
34061;DHT22;20336;-33.424;-70.638;2023-07-29T10:18:42;11.60;99.90
34061;DHT22;20336;-33.424;-70.638;2023-07-29T10:21:11;11.60;99.90
34061;DHT22;20336;-33.424;-70.638;2023-07-29T10:23:45;11.60;99.90
34061;DHT22;20336;-33.424;-70.638;2023-07-29T10:26:17;11.50;99.90
34061;DHT22;20336;-33.424;-70.638;2023-07-29T10:28:47;11.50;99.90
34061;DHT22;20336;-33.424;-70.638;2023-07-29T10:31:18;11.60;99.90
34061;DHT22;20336;-33.424;-70.638;2023-07-29T10:33:45;11.60;99.90
34061;DHT22;20336;-33.424;-70.638;2023-07-29T10:36:14;11.70;99.90
34061;DHT22;20336;-33.424;-70.638;2023-07-29T10:38:42;11.70;99.90
34061;DHT22;20336;-33.424;-70.638;2023-07-29T10:41:09;11.70;99.90
34061;DHT22;20336;-33.424;-70.638;2023-07-29T10:43:39;11.70;99.90
34061;DHT22;20336;-33.424;-70.638;2023-07-29T10:46:22;11.70;99.90
34061;DHT22;20336;-33.424;-70.638;2023-07-29T10:48:56;11.80;99.90
34061;DHT22;20336;-33.424;-70.638;2023-07-29T10:51:36;11.70;99.90
34061;DHT22;20336;-33.424;-70.638;2023-07-29T10:54:13;11.70;99.90
34061;DHT22;20336;-33.424;-70.638;2023-07-29T10:56:48;11.80;99.90
34061;DHT22;20336;-33.424;-70.638;2023-07-29T11:01:59;11.80;99.90
34061;DHT22;20336;-33.424;-70.638;2023-07-29T11:04:28;12.00;99.90
34061;DHT22;20336;-33.424;-70.638;2023-07-29T11:15:33;11.70;99.90
34061;DHT22;20336;-33.424;-70.638;2023-07-29T11:18:01;11.60;99.90
34061;DHT22;20336;-33.424;-70.638;2023-07-29T11:20:32;11.60;99.90
34061;DHT22;20336;-33.424;-70.638;2023-07-29T11:23:02;11.60;99.90
34061;DHT22;20336;-33.424;-70.638;2023-07-29T11:25:30;11.60;99.90
34061;DHT22;20336;-33.424;-70.638;2023-07-29T11:28:00;11.60;99.90
34061;DHT22;20336;-33.424;-70.638;2023-07-29T11:30:27;11.60;99.90
34061;DHT22;20336;-33.424;-70.638;2023-07-29T11:32:55;11.60;99.90
34061;DHT22;20336;-33.424;-70.638;2023-07-29T11:35:22;11.50;99.90
34061;DHT22;20336;-33.424;-70.638;2023-07-29T11:37:51;11.60;99.90
34061;DHT22;20336;-33.424;-70.638;2023-07-29T11:40:22;11.60;99.90
34061;DHT22;20336;-33.424;-70.638;2023-07-29T11:42:51;11.60;99.90
34061;DHT22;20336;-33.424;-70.638;2023-07-29T11:45:19;11.90;99.90
34061;DHT22;20336;-33.424;-70.638;2023-07-29T11:47:46;11.90;99.90
34061;DHT22;20336;-33.424;-70.638;2023-07-29T11:50:15;11.80;99.90
34061;DHT22;20336;-33.424;-70.638;2023-07-29T11:52:43;11.80;99.90
34061;DHT22;20336;-33.424;-70.638;2023-07-29T11:55:15;11.80;99.90
34061;DHT22;20336;-33.424;-70.638;2023-07-29T11:57:42;11.80;99.90
34061;DHT22;20336;-33.424;-70.638;2023-07-29T12:00:11;11.80;99.90
34061;DHT22;20336;-33.424;-70.638;2023-07-29T12:02:42;11.70;99.90
34061;DHT22;20336;-33.424;-70.638;2023-07-29T12:05:13;11.70;99.90
34061;DHT22;20336;-33.424;-70.638;2023-07-29T12:07:42;11.70;99.90
34061;DHT22;20336;-33.424;-70.638;2023-07-29T12:10:10;11.70;99.90
34061;DHT22;20336;-33.424;-70.638;2023-07-29T12:12:50;11.70;99.90
34061;DHT22;20336;-33.424;-70.638;2023-07-29T12:15:28;11.70;99.90
34061;DHT22;20336;-33.424;-70.638;2023-07-29T12:17:59;11.70;99.90
34061;DHT22;20336;-33.424;-70.638;2023-07-29T12:20:27;11.80;99.90
34061;DHT22;20336;-33.424;-70.638;2023-07-29T12:22:57;11.80;99.90
34061;DHT22;20336;-33.424;-70.638;2023-07-29T12:25:25;11.90;99.90
34061;DHT22;20336;-33.424;-70.638;2023-07-29T12:27:52;12.00;99.90
34061;DHT22;20336;-33.424;-70.638;2023-07-29T12:30:22;12.00;99.90
34061;DHT22;20336;-33.424;-70.638;2023-07-29T12:32:50;12.00;99.90
34061;DHT22;20336;-33.424;-70.638;2023-07-29T12:35:17;12.10;99.90
34061;DHT22;20336;-33.424;-70.638;2023-07-29T12:37:44;12.10;99.90
34061;DHT22;20336;-33.424;-70.638;2023-07-29T12:40:22;12.20;99.90
34061;DHT22;20336;-33.424;-70.638;2023-07-29T12:42:50;12.20;99.90
34061;DHT22;20336;-33.424;-70.638;2023-07-29T12:45:18;12.30;99.90
34061;DHT22;20336;-33.424;-70.638;2023-07-29T12:47:45;12.50;99.90
34061;DHT22;20336;-33.424;-70.638;2023-07-29T12:50:12;12.40;99.90
34061;DHT22;20336;-33.424;-70.638;2023-07-29T12:52:39;12.50;99.90
34061;DHT22;20336;-33.424;-70.638;2023-07-29T12:55:06;12.40;99.90
34061;DHT22;20336;-33.424;-70.638;2023-07-29T12:57:35;12.40;99.90
34061;DHT22;20336;-33.424;-70.638;2023-07-29T13:00:03;12.40;99.90
34061;DHT22;20336;-33.424;-70.638;2023-07-29T13:02:31;12.30;99.90
34061;DHT22;20336;-33.424;-70.638;2023-07-29T13:04:58;12.30;99.90
34061;DHT22;20336;-33.424;-70.638;2023-07-29T13:07:25;12.40;99.90
34061;DHT22;20336;-33.424;-70.638;2023-07-29T13:09:51;12.30;99.90
34061;DHT22;20336;-33.424;-70.638;2023-07-29T13:12:18;12.30;99.90
34061;DHT22;20336;-33.424;-70.638;2023-07-29T13:14:45;12.40;99.90
34061;DHT22;20336;-33.424;-70.638;2023-07-29T13:17:12;12.40;99.90
34061;DHT22;20336;-33.424;-70.638;2023-07-29T13:19:39;12.50;99.90
34061;DHT22;20336;-33.424;-70.638;2023-07-29T13:22:09;12.50;99.90
34061;DHT22;20336;-33.424;-70.638;2023-07-29T13:24:35;12.60;99.90
34061;DHT22;20336;-33.424;-70.638;2023-07-29T13:27:02;12.60;99.90
34061;DHT22;20336;-33.424;-70.638;2023-07-29T13:29:29;12.70;99.90
34061;DHT22;20336;-33.424;-70.638;2023-07-29T13:31:56;12.80;99.90
34061;DHT22;20336;-33.424;-70.638;2023-07-29T13:34:23;12.90;99.90
34061;DHT22;20336;-33.424;-70.638;2023-07-29T13:36:50;12.90;99.90
34061;DHT22;20336;-33.424;-70.638;2023-07-29T13:39:16;12.90;99.90
34061;DHT22;20336;-33.424;-70.638;2023-07-29T13:41:43;13.10;99.90
34061;DHT22;20336;-33.424;-70.638;2023-07-29T13:44:10;13.10;99.90
34061;DHT22;20336;-33.424;-70.638;2023-07-29T13:46:37;13.30;99.90
34061;DHT22;20336;-33.424;-70.638;2023-07-29T13:49:04;13.20;99.90
34061;DHT22;20336;-33.424;-70.638;2023-07-29T13:51:31;13.30;99.90
34061;DHT22;20336;-33.424;-70.638;2023-07-29T13:53:57;13.30;99.90
34061;DHT22;20336;-33.424;-70.638;2023-07-29T13:56:24;13.30;99.90
34061;DHT22;20336;-33.424;-70.638;2023-07-29T13:58:51;13.40;99.90
34061;DHT22;20336;-33.424;-70.638;2023-07-29T14:01:18;13.40;99.90
34061;DHT22;20336;-33.424;-70.638;2023-07-29T14:03:45;13.60;99.90
34061;DHT22;20336;-33.424;-70.638;2023-07-29T14:06:12;13.80;99.90
34061;DHT22;20336;-33.424;-70.638;2023-07-29T14:08:38;14.10;99.90
34061;DHT22;20336;-33.424;-70.638;2023-07-29T14:11:07;14.40;99.90
34061;DHT22;20336;-33.424;-70.638;2023-07-29T14:13:34;14.60;99.90
34061;DHT22;20336;-33.424;-70.638;2023-07-29T14:16:02;14.80;99.90
34061;DHT22;20336;-33.424;-70.638;2023-07-29T14:18:30;15.00;99.90
34061;DHT22;20336;-33.424;-70.638;2023-07-29T14:20:57;15.30;99.90
34061;DHT22;20336;-33.424;-70.638;2023-07-29T14:23:23;15.70;99.90
34061;DHT22;20336;-33.424;-70.638;2023-07-29T14:25:50;15.80;99.90
34061;DHT22;20336;-33.424;-70.638;2023-07-29T14:28:17;15.80;99.90
34061;DHT22;20336;-33.424;-70.638;2023-07-29T14:30:44;16.00;99.90
34061;DHT22;20336;-33.424;-70.638;2023-07-29T14:33:11;16.30;99.90
34061;DHT22;20336;-33.424;-70.638;2023-07-29T14:35:37;16.40;99.90
34061;DHT22;20336;-33.424;-70.638;2023-07-29T14:38:04;16.70;99.90
34061;DHT22;20336;-33.424;-70.638;2023-07-29T14:40:31;16.80;99.90
34061;DHT22;20336;-33.424;-70.638;2023-07-29T14:42:58;17.30;99.90
34061;DHT22;20336;-33.424;-70.638;2023-07-29T14:45:25;17.80;99.90
34061;DHT22;20336;-33.424;-70.638;2023-07-29T14:47:52;18.10;99.90
34061;DHT22;20336;-33.424;-70.638;2023-07-29T14:50:19;18.30;99.90
34061;DHT22;20336;-33.424;-70.638;2023-07-29T14:52:46;18.50;99.90
34061;DHT22;20336;-33.424;-70.638;2023-07-29T14:55:12;19.00;99.90
34061;DHT22;20336;-33.424;-70.638;2023-07-29T14:57:39;19.40;99.90
34061;DHT22;20336;-33.424;-70.638;2023-07-29T15:00:07;19.60;99.90
34061;DHT22;20336;-33.424;-70.638;2023-07-29T15:02:34;19.60;99.90
34061;DHT22;20336;-33.424;-70.638;2023-07-29T15:05:01;19.70;99.90
34061;DHT22;20336;-33.424;-70.638;2023-07-29T15:07:28;19.70;99.90
34061;DHT22;20336;-33.424;-70.638;2023-07-29T15:09:55;19.70;99.90
34061;DHT22;20336;-33.424;-70.638;2023-07-29T15:12:22;19.60;99.90